Time;durP1;ratioP1;P1;durP2;ratioP2;P2;SDS_P1;SDS_P2;PMS_P1;PMS_P2;Temp;Humidity;BMP_temperature;BMP_pressure;BME280_temperature;BME280_humidity;BME280_pressure;Samples;Min_cycle;Max_cycle;Signal;HPM_P1;HPM_P2
2024/03/22 00:00:59;;;;;;;0.30;0.30;;;;;;;6.38;68.11;97037.44;5041529;28;20146;-72
2024/03/22 00:03:25;;;;;;;0.30;0.30;;;;;;;6.72;67.76;97084.56;5041358;28;20487;-70
2024/03/22 00:05:51;;;;;;;0.30;0.30;;;;;;;6.78;67.82;97091.41;5041307;28;20056;-70
2024/03/22 00:08:16;;;;;;;0.30;0.30;;;;;;;6.33;67.79;97030.22;5040973;28;20067;-71
2024/03/22 00:10:42;;;;;;;0.30;0.30;;;;;;;4.02;68.37;96677.84;5041019;28;20405;-71
2024/03/22 00:13:08;;;;;;;0.30;0.30;;;;;;;5.43;68.43;96924.22;5041316;28;20056;-71
2024/03/22 00:15:34;;;;;;;0.30;0.30;;;;;;;6.47;68.93;97074.69;5041703;28;20053;-71
2024/03/22 00:17:59;;;;;;;0.30;0.30;;;;;;;6.54;68.40;97113.47;5025305;28;20052;-71
2024/03/22 00:20:25;;;;;;;0.30;0.30;;;;;;;6.58;67.97;97092.34;5042237;28;20134;-71
2024/03/22 00:22:51;;;;;;;0.30;0.30;;;;;;;5.95;68.85;97004.97;5042063;28;20056;-72
2024/03/22 00:25:16;;;;;;;0.30;0.30;;;;;;;6.52;68.46;97088.22;5041149;28;20499;-71
2024/03/22 00:27:42;;;;;;;0.30;0.30;;;;;;;6.37;68.54;97064.13;5041460;28;20053;-71
2024/03/22 00:30:08;;;;;;;0.30;0.30;;;;;;;5.93;68.35;97004.50;5041215;28;20057;-71
2024/03/22 00:32:34;;;;;;;0.30;0.30;;;;;;;6.41;68.62;97103.56;5041168;28;20084;-71
2024/03/22 00:35:00;;;;;;;0.30;0.30;;;;;;;6.38;68.18;97076.75;5047361;28;20519;-71
2024/03/22 00:37:25;;;;;;;0.30;0.30;;;;;;;5.48;67.89;96948.75;5060841;28;20060;-71
2024/03/22 00:39:51;;;;;;;0.30;0.30;;;;;;;5.79;67.69;97031.47;5061170;28;20052;-71
2024/03/22 00:42:17;;;;;;;0.30;0.30;;;;;;;6.43;68.47;97100.47;5060591;28;20071;-72
2024/03/22 00:44:43;;;;;;;0.30;0.30;;;;;;;6.46;67.48;97092.34;5060723;28;20076;-71
2024/03/22 00:47:08;;;;;;;0.30;0.30;;;;;;;4.62;67.45;96795.94;5060881;28;20515;-71
2024/03/22 00:49:34;;;;;;;0.30;0.30;;;;;;;6.49;68.47;97094.41;5060413;28;20478;-71
2024/03/22 00:52:00;;;;;;;0.30;0.30;;;;;;;6.29;67.88;97084.31;5060806;28;20136;-72
2024/03/22 00:54:26;;;;;;;0.30;0.30;;;;;;;3.99;68.18;96718.81;5060468;28;20056;-71
2024/03/22 00:56:51;;;;;;;0.30;0.30;;;;;;;6.38;68.19;97104.25;5060730;28;20052;-71
2024/03/22 00:59:18;;;;;;;0.30;0.30;;;;;;;6.42;67.98;97107.91;5064017;28;20056;-71
2024/03/22 01:01:44;;;;;;;0.30;0.30;;;;;;;6.37;68.38;97102.63;5065348;28;20048;-71
2024/03/22 01:04:09;;;;;;;0.30;0.30;;;;;;;5.74;67.82;97094.88;5048924;28;20053;-71
2024/03/22 01:06:35;;;;;;;0.30;0.30;;;;;;;6.41;67.71;97109.06;5064731;28;20136;-71
2024/03/22 01:09:03;;;;;;;0.30;0.30;;;;;;;6.16;67.55;97088.19;5064301;28;21661;-71
2024/03/22 01:11:29;;;;;;;0.30;0.30;;;;;;;6.22;67.23;97110.75;5064462;28;20055;-71
2024/03/22 01:13:55;;;;;;;0.30;0.30;;;;;;;6.18;67.01;97110.63;5064377;28;20059;-72
2024/03/22 01:16:20;;;;;;;0.30;0.30;;;;;;;6.18;66.93;97112.59;5064607;28;20056;-70
2024/03/22 01:18:46;;;;;;;0.30;0.30;;;;;;;5.94;67.56;97069.34;5048013;28;20117;-71
2024/03/22 01:21:12;;;;;;;0.30;0.30;;;;;;;6.10;67.32;97114.28;5064425;28;20064;-70
2024/03/22 01:23:38;;;;;;;0.22;0.22;;;;;;;5.96;66.91;97091.78;5064231;28;20049;-71
2024/03/22 01:26:03;;;;;;;0.30;0.30;;;;;;;6.07;66.45;97114.94;5064531;28;20052;-70
2024/03/22 01:28:29;;;;;;;0.30;0.30;;;;;;;6.01;66.14;97111.63;5064449;28;20086;-71
2024/03/22 01:30:55;;;;;;;0.30;0.30;;;;;;;6.00;67.20;97125.72;5064725;28;20052;-71
2024/03/22 01:33:21;;;;;;;0.30;0.30;;;;;;;5.94;66.65;97111.34;5065256;28;20060;-70
2024/03/22 01:35:46;;;;;;;0.30;0.30;;;;;;;5.81;66.64;97097.91;5048684;28;20418;-71
2024/03/22 01:38:12;;;;;;;0.30;0.30;;;;;;;6.04;66.19;97110.13;5064862;28;20216;-70
2024/03/22 01:40:38;;;;;;;0.30;0.30;;;;;;;6.02;65.70;97123.44;5020139;28;20532;-70
2024/03/22 01:43:03;;;;;;;0.30;0.30;;;;;;;5.53;65.27;97072.94;5027613;28;20436;-71
2024/03/22 01:45:33;;;;;;;0.30;0.30;;;;;;;5.90;64.87;97117.88;5044292;28;20053;-71
2024/03/22 01:47:59;;;;;;;0.30;0.30;;;;;;;5.27;64.65;97027.63;5043823;28;20072;-71
2024/03/22 01:50:26;;;;;;;0.30;0.30;;;;;;;5.80;64.71;97121.03;5043812;28;20052;-71
2024/03/22 01:52:52;;;;;;;0.30;0.30;;;;;;;5.84;64.73;97116.47;5043896;28;20049;-71
2024/03/22 01:55:18;;;;;;;0.30;0.30;;;;;;;5.45;64.51;97092.25;5043823;28;20060;-71
2024/03/22 01:57:44;;;;;;;0.30;0.30;;;;;;;5.84;64.59;97116.47;5027281;28;20475;-71
2024/03/22 02:00:10;;;;;;;0.30;0.30;;;;;;;6.01;64.28;97122.63;5044178;28;20137;-73
2024/03/22 02:02:36;;;;;;;0.30;0.30;;;;;;;5.81;64.84;97130.88;5027224;28;20048;-70
2024/03/22 02:05:16;;;;;;;0.20;0.20;;;;;;;5.91;63.54;97123.03;5044045;28;20048;-71
2024/03/22 02:07:42;;;;;;;0.30;0.30;;;;;;;5.59;63.90;97079.03;5044522;28;20053;-72
2024/03/22 02:10:10;;;;;;;0.30;0.30;;;;;;;5.52;62.87;97048.53;5043137;28;20508;-72
2024/03/22 02:12:37;;;;;;;0.30;0.30;;;;;;;6.21;63.05;97134.72;5043955;28;20049;-71
2024/03/22 02:15:03;;;;;;;0.30;0.30;;;;;;;5.43;62.35;97034.09;5027183;28;20518;-72
2024/03/22 02:17:29;;;;;;;0.30;0.30;;;;;;;5.42;62.35;96999.53;5027091;28;20326;-70
2024/03/22 02:19:55;;;;;;;0.30;0.30;;;;;;;6.23;62.99;97140.66;5042846;28;20102;-71
2024/03/22 02:22:21;;;;;;;0.30;0.30;;;;;;;6.17;63.03;97144.78;5043389;28;20059;-71
2024/03/22 02:24:46;;;;;;;0.30;0.30;;;;;;;6.28;62.47;97147.88;5032689;28;20544;-72
2024/03/22 02:27:12;;;;;;;0.30;0.30;;;;;;;5.39;62.17;97000.22;5062732;28;20056;-71
2024/03/22 02:29:38;;;;;;;0.30;0.30;;;;;;;6.20;62.25;97135.84;5062992;28;20135;-70
2024/03/22 02:32:04;;;;;;;0.30;0.30;;;;;;;5.95;61.75;97103.94;5046706;28;20549;-72
2024/03/22 02:34:30;;;;;;;0.30;0.30;;;;;;;5.94;61.97;97094.06;5044882;28;20079;-69
2024/03/22 02:36:55;;;;;;;0.30;0.30;;;;;;;6.18;61.64;97143.63;5059961;28;20503;-70
2024/03/22 02:39:21;;;;;;;0.40;0.40;;;;;;;6.13;61.64;97135.59;5043610;28;20060;-70
2024/03/22 02:41:47;;;;;;;0.30;0.30;;;;;;;6.26;62.23;97139.97;5043686;28;20065;-69
2024/03/22 02:44:13;;;;;;;0.30;0.30;;;;;;;6.22;61.85;97144.56;5042963;28;20653;-69
2024/03/22 02:46:38;;;;;;;0.30;0.30;;;;;;;6.15;60.40;97122.31;5059389;28;20045;-70
2024/03/22 02:49:04;;;;;;;0.30;0.30;;;;;;;5.07;61.27;96992.75;5042724;28;20056;-69
2024/03/22 02:51:30;;;;;;;0.30;0.30;;;;;;;6.24;61.10;97150.53;5042771;28;20056;-70
2024/03/22 02:53:55;;;;;;;0.22;0.22;;;;;;;6.34;60.18;97161.09;5026331;28;20079;-70
2024/03/22 02:56:21;;;;;;;0.30;0.30;;;;;;;5.62;60.90;97059.13;5042418;28;20155;-70
2024/03/22 02:58:49;;;;;;;0.30;0.30;;;;;;;6.31;60.67;97163.75;5042820;28;20110;-70
2024/03/22 03:01:14;;;;;;;0.30;0.30;;;;;;;5.76;60.11;97103.59;5042345;28;20508;-70
2024/03/22 03:03:40;;;;;;;0.30;0.30;;;;;;;6.31;59.73;97170.03;5042214;28;20106;-69
2024/03/22 03:06:06;;;;;;;0.30;0.30;;;;;;;4.09;59.48;96808.84;5042876;28;20061;-71
2024/03/22 03:08:32;;;;;;;0.30;0.30;;;;;;;6.13;59.47;97163.09;5042035;28;20052;-71
2024/03/22 03:10:58;;;;;;;0.30;0.30;;;;;;;4.91;59.56;96972.53;5042573;28;20451;-71
2024/03/22 03:13:24;;;;;;;0.30;0.30;;;;;;;6.29;59.60;97164.06;5042373;28;20057;-70
2024/03/22 03:15:50;;;;;;;0.30;0.30;;;;;;;6.25;59.47;97162.31;5042844;28;20053;-70
2024/03/22 03:18:15;;;;;;;0.30;0.30;;;;;;;6.24;59.78;97175.28;5043554;28;20055;-70
2024/03/22 03:20:41;;;;;;;0.30;0.30;;;;;;;6.14;59.38;97167.44;5042176;28;20424;-71
2024/03/22 03:23:07;;;;;;;0.30;0.30;;;;;;;5.16;58.98;96990.72;5042145;28;20049;-71
2024/03/22 03:25:32;;;;;;;0.30;0.30;;;;;;;6.09;59.54;97167.66;5042089;28;20052;-71
2024/03/22 03:27:58;;;;;;;0.30;0.30;;;;;;;5.97;59.87;97164.88;5041983;28;20056;-71
2024/03/22 03:30:24;;;;;;;0.30;0.30;;;;;;;6.24;59.78;97178.03;5041698;28;20057;-71
2024/03/22 03:32:49;;;;;;;0.30;0.30;;;;;;;6.26;59.67;97177.69;5041843;28;20080;-70
2024/03/22 03:35:15;;;;;;;0.30;0.30;;;;;;;6.25;59.90;97182.38;5047312;28;20142;-70
2024/03/22 03:37:41;;;;;;;0.20;0.20;;;;;;;6.21;59.72;97169.66;5078549;28;20299;-70
2024/03/22 03:40:07;;;;;;;0.30;0.30;;;;;;;6.30;59.59;97184.13;5061227;28;20439;-70
2024/03/22 03:42:33;;;;;;;0.30;0.30;;;;;;;6.18;59.92;97184.88;5061224;28;20067;-71
2024/03/22 03:44:59;;;;;;;0.30;0.30;;;;;;;5.59;59.42;97098.25;5044531;28;20056;-69
2024/03/22 03:47:25;;;;;;;0.30;0.30;;;;;;;6.30;60.39;97179.44;5061742;28;20052;-70
2024/03/22 03:49:52;;;;;;;0.30;0.30;;;;;;;6.15;60.92;97166.31;5061672;28;20048;-70
2024/03/22 03:52:18;;;;;;;0.30;0.30;;;;;;;6.22;60.82;97180.31;5061738;28;20451;-70
2024/03/22 03:54:43;;;;;;;0.30;0.30;;;;;;;5.76;61.01;97114.59;5061343;28;20053;-70
2024/03/22 03:57:09;;;;;;;0.35;0.35;;;;;;;6.28;60.56;97187.22;5045121;28;20060;-70
2024/03/22 03:59:35;;;;;;;0.30;0.30;;;;;;;6.23;61.23;97190.16;5061202;28;20109;-70
2024/03/22 04:02:01;;;;;;;0.30;0.30;;;;;;;6.26;60.20;97189.50;5061694;28;20066;-70
2024/03/22 04:04:26;;;;;;;0.30;0.30;;;;;;;5.73;60.67;97153.75;5061580;28;20052;-70
2024/03/22 04:06:52;;;;;;;0.30;0.30;;;;;;;6.12;60.77;97199.97;5044827;28;20060;-70
2024/03/22 04:09:18;;;;;;;0.30;0.30;;;;;;;2.76;60.75;96668.31;5044439;28;20056;-71
2024/03/22 04:11:44;;;;;;;0.30;0.30;;;;;;;6.16;61.77;97200.94;5044924;28;20057;-71
2024/03/22 04:14:10;;;;;;;0.30;0.30;;;;;;;5.52;60.88;97130.94;5044315;28;20059;-71
2024/03/22 04:16:36;;;;;;;0.30;0.30;;;;;;;5.87;60.93;97198.25;5061076;28;20056;-70
2024/03/22 04:19:01;;;;;;;0.30;0.30;;;;;;;5.50;61.36;97188.19;5044684;28;20676;-70
2024/03/22 04:21:27;;;;;;;0.30;0.30;;;;;;;5.78;62.03;97206.56;5044119;28;20508;-70
2024/03/22 04:23:53;;;;;;;0.30;0.30;;;;;;;5.77;61.77;97221.44;5061019;28;20136;-70
2024/03/22 04:26:19;;;;;;;0.30;0.30;;;;;;;5.61;61.44;97178.41;5060874;28;20052;-70
2024/03/22 04:28:44;;;;;;;0.30;0.30;;;;;;;5.74;61.37;97215.78;5060951;28;20045;-70
2024/03/22 04:31:10;;;;;;;0.30;0.30;;;;;;;5.69;61.61;97232.50;5061321;28;20084;-70
2024/03/22 04:33:37;;;;;;;0.22;0.22;;;;;;;5.58;62.12;97228.53;5061547;28;20056;-69
2024/03/22 04:36:04;;;;;;;0.30;0.30;;;;;;;5.63;61.69;97236.56;5044340;28;20048;-70
2024/03/22 04:38:30;;;;;;;0.30;0.30;;;;;;;4.76;60.91;97064.47;5061158;28;20052;-70
2024/03/22 04:40:57;;;;;;;0.30;0.30;;;;;;;5.73;61.89;97252.66;5061200;28;20056;-70
2024/03/22 04:43:24;;;;;;;0.30;0.30;;;;;;;5.61;61.79;97217.66;5042453;28;20053;-70
2024/03/22 04:45:53;;;;;;;0.30;0.30;;;;;;;5.24;62.00;97176.56;5041125;28;20100;-70
2024/03/22 04:48:20;;;;;;;0.30;0.30;;;;;;;5.17;62.28;97168.06;5040842;28;20067;-70
2024/03/22 04:50:49;;;;;;;0.30;0.30;;;;;;;5.62;62.99;97245.97;5040346;28;20106;-70
2024/03/22 04:53:21;;;;;;;0.30;0.30;;;;;;;5.76;62.62;97238.25;5040685;28;20056;-70
2024/03/22 04:55:47;;;;;;;0.30;0.30;;;;;;;5.70;63.16;97234.91;5040865;28;20131;-70
2024/03/22 04:58:17;;;;;;;0.30;0.30;;;;;;;5.26;62.50;97166.88;5039882;28;20049;-70
2024/03/22 05:00:44;;;;;;;0.30;0.30;;;;;;;5.43;62.41;97165.94;5023877;28;20447;-69
2024/03/22 05:03:10;;;;;;;0.30;0.30;;;;;;;5.98;62.15;97232.44;5040647;28;20118;-70
2024/03/22 05:05:36;;;;;;;0.30;0.30;;;;;;;5.20;61.92;97134.44;5040455;28;20053;-70
2024/03/22 05:08:02;;;;;;;0.30;0.30;;;;;;;5.12;61.31;97099.63;5039987;28;20067;-70
2024/03/22 05:10:29;;;;;;;0.30;0.30;;;;;;;5.41;61.37;97147.03;5040482;28;20447;-69
2024/03/22 05:12:56;;;;;;;0.30;0.30;;;;;;;6.07;61.73;97228.50;5024120;28;20119;-70
2024/03/22 05:15:22;;;;;;;0.30;0.30;;;;;;;6.15;61.41;97243.31;5041637;28;20067;-70
2024/03/22 05:17:48;;;;;;;0.30;0.30;;;;;;;5.84;60.97;97183.25;5041128;28;20049;-70
2024/03/22 05:20:15;;;;;;;0.30;0.30;;;;;;;6.28;59.72;97260.66;5023954;28;20064;-71
2024/03/22 05:22:40;;;;;;;0.30;0.30;;;;;;;5.71;59.98;97112.03;5040432;28;20056;-70
2024/03/22 05:25:07;;;;;;;0.30;0.30;;;;;;;5.29;59.84;97030.84;5040503;28;20502;-70
2024/03/22 05:27:34;;;;;;;0.30;0.30;;;;;;;6.66;59.68;97236.50;5040668;28;20432;-70
2024/03/22 05:30:00;;;;;;;0.30;0.30;;;;;;;6.75;59.12;97232.50;5040646;28;20554;-70
2024/03/22 05:32:26;;;;;;;0.30;0.30;;;;;;;6.47;58.34;97184.75;5039938;28;20053;-70
2024/03/22 05:34:52;;;;;;;0.30;0.30;;;;;;;6.81;57.61;97209.09;5041205;28;20064;-70
2024/03/22 05:37:18;;;;;;;0.30;0.30;;;;;;;7.16;58.10;97234.31;5059970;28;20447;-71
2024/03/22 05:39:44;;;;;;;0.40;0.40;;;;;;;7.35;57.17;97232.56;5060270;28;20063;-71
2024/03/22 05:42:10;;;;;;;0.40;0.40;;;;;;;7.27;57.44;97236.22;5060521;28;20714;-70
2024/03/22 05:44:36;;;;;;;0.40;0.40;;;;;;;7.46;57.23;97225.44;5077939;28;20499;-73
2024/03/22 05:47:01;;;;;;;0.40;0.40;;;;;;;6.94;56.96;97154.88;5047050;28;20053;-72
2024/03/22 05:49:27;;;;;;;0.32;0.32;;;;;;;7.63;56.42;97222.44;5063359;28;20172;-72
2024/03/22 05:51:53;;;;;;;0.40;0.40;;;;;;;7.62;56.58;97215.31;5064109;28;20056;-73
2024/03/22 05:54:20;;;;;;;0.30;0.30;;;;;;;7.79;56.14;97224.47;5064228;28;20098;-71
2024/03/22 05:56:46;;;;;;;0.30;0.30;;;;;;;7.58;55.35;97183.28;5064835;28;20060;-72
2024/03/22 05:59:11;;;;;;;0.38;0.38;;;;;;;8.20;54.90;97215.84;5063781;28;20540;-72
2024/03/22 06:01:40;;;;;;;0.40;0.40;;;;;;;7.99;54.47;97209.72;5046661;28;20130;-72
2024/03/22 06:04:06;;;;;;;0.40;0.40;;;;;;;7.70;54.44;97184.06;5046721;28;20053;-72
2024/03/22 06:06:33;;;;;;;0.40;0.40;;;;;;;5.95;53.53;96952.72;5063540;28;20067;-71
2024/03/22 06:09:02;;;;;;;0.30;0.30;;;;;;;8.10;53.40;97224.63;5062666;28;20068;-72
2024/03/22 06:11:28;;;;;;;0.40;0.40;;;;;;;8.07;54.19;97214.28;5046706;28;20065;-72
2024/03/22 06:13:54;;;;;;;0.40;0.40;;;;;;;8.41;53.50;97230.31;5063162;28;20060;-73
2024/03/22 06:16:20;;;;;;;0.40;0.40;;;;;;;8.10;52.75;97189.56;5046546;28;20056;-72
2024/03/22 06:18:45;;;;;;;0.40;0.40;;;;;;;8.41;52.86;97235.81;5062881;28;20056;-72
2024/03/22 06:21:14;;;;;;;0.40;0.40;;;;;;;8.48;52.64;97225.78;5063013;28;20060;-72
2024/03/22 06:23:41;;;;;;;0.40;0.40;;;;;;;8.17;53.07;97214.59;5062729;28;20049;-72
2024/03/22 06:26:07;;;;;;;0.40;0.40;;;;;;;8.50;52.41;97244.75;5063240;28;20464;-72
2024/03/22 06:28:32;;;;;;;0.35;0.35;;;;;;;8.82;52.17;97236.16;5063696;28;20131;-70
2024/03/22 06:30:58;;;;;;;0.40;0.40;;;;;;;8.84;51.90;97205.44;5063862;28;20455;-71
2024/03/22 06:33:24;;;;;;;0.40;0.40;;;;;;;8.32;50.41;97166.97;5059659;28;20147;-71
2024/03/22 06:35:50;;;;;;;0.40;0.40;;;;;;;8.96;50.85;97241.28;5047804;28;20056;-69
2024/03/22 06:38:16;;;;;;;0.40;0.40;;;;;;;9.27;48.69;97246.81;5044144;28;20049;-63
2024/03/22 06:40:41;;;;;;;0.40;0.40;;;;;;;9.44;49.10;97243.69;5062023;28;20056;-68
2024/03/22 06:43:07;;;;;;;0.40;0.40;;;;;;;9.18;48.25;97166.06;5061527;28;20048;-65
2024/03/22 06:45:33;;;;;;;0.50;0.50;;;;;;;8.05;47.85;96980.16;5062678;28;20052;-71
2024/03/22 06:47:58;;;;;;;0.50;0.50;;;;;;;9.60;47.24;97250.00;5062153;28;20045;-68
2024/03/22 06:50:24;;;;;;;0.40;0.40;;;;;;;9.14;47.84;97178.97;5062449;28;20048;-71
2024/03/22 06:52:53;;;;;;;0.50;0.50;;;;;;;9.25;48.90;97218.72;5029658;28;20524;-65
2024/03/22 06:55:20;;;;;;;0.40;0.40;;;;;;;9.59;47.64;97253.13;5058764;28;20056;-70
2024/03/22 06:57:47;;;;;;;0.40;0.40;;;;;;;9.43;46.90;97233.78;5061859;28;20044;-70
2024/03/22 07:00:13;;;;;;;0.40;0.40;;;;;;;9.64;46.41;97234.28;5062414;28;20074;-62
2024/03/22 07:02:40;;;;;;;0.47;0.47;;;;;;;10.07;45.50;97263.75;5061462;28;20055;-67
2024/03/22 07:05:07;;;;;;;0.50;0.50;;;;;;;9.42;44.98;97099.47;5061651;28;20723;-67
2024/03/22 07:07:33;;;;;;;0.40;0.40;;;;;;;10.51;44.00;97241.00;5043764;28;20064;-67
2024/03/22 07:09:59;;;;;;;0.40;0.40;;;;;;;10.24;44.67;97247.53;5057981;28;20053;-70
2024/03/22 07:12:25;;;;;;;0.43;0.43;;;;;;;10.06;43.79;97218.66;5060362;28;20055;-71
2024/03/22 07:14:51;;;;;;;0.40;0.40;;;;;;;10.25;44.97;97260.22;5044574;28;20573;-69
2024/03/22 07:17:16;;;;;;;0.50;0.50;;;;;;;10.64;44.76;97245.22;5058389;28;20094;-71
2024/03/22 07:19:43;;;;;;;0.40;0.40;;;;;;;10.77;44.19;97242.28;5060864;28;20052;-65
2024/03/22 07:22:09;;;;;;;0.50;0.50;;;;;;;10.82;43.59;97244.75;5062253;28;20053;-73
2024/03/22 07:24:35;;;;;;;0.50;0.50;;;;;;;10.55;43.78;97157.97;5045810;28;20052;-65
2024/03/22 07:27:01;;;;;;;0.60;0.60;;;;;;;11.25;43.40;97236.06;5061873;28;20133;-65
2024/03/22 07:29:26;;;;;;;0.50;0.50;;;;;;;10.87;42.89;97148.28;5059956;28;20493;-74
2024/03/22 07:31:52;;;;;;;0.50;0.50;;;;;;;11.02;41.70;97177.06;5060943;28;20052;-72
2024/03/22 07:34:18;;;;;;;0.60;0.60;;;;;;;11.34;41.32;97237.41;5027790;28;20122;-69
2024/03/22 07:36:44;;;;;;;0.57;0.57;;;;;;;11.45;41.10;97212.63;5044293;28;20060;-69
2024/03/22 07:39:10;;;;;;;0.50;0.50;;;;;;;11.52;40.59;97219.06;5060562;28;20818;-65
2024/03/22 07:41:36;;;;;;;0.50;0.50;;;;;;;11.60;39.85;97236.66;5060859;28;20056;-64
2024/03/22 07:44:02;;;;;;;0.50;0.50;;;;;;;11.54;39.24;97232.59;5060327;28;20076;-62
2024/03/22 07:46:28;;;;;;;0.50;0.50;;;;;;;11.84;38.51;97230.69;5058456;28;20098;-66
2024/03/22 07:48:54;;;;;;;0.50;0.50;;;;;;;11.76;38.58;97240.13;5060996;28;20057;-64
2024/03/22 07:51:20;;;;;;;0.50;0.50;;;;;;;11.83;38.47;97240.19;5061245;28;20594;-63
2024/03/22 07:53:46;;;;;;;0.52;0.52;;;;;;;11.92;38.67;97243.50;5060499;28;20155;-74
2024/03/22 07:56:12;;;;;;;0.50;0.50;;;;;;;11.52;39.58;97241.25;5059124;28;20470;-64
2024/03/22 07:58:38;;;;;;;0.50;0.50;;;;;;;11.80;39.04;97233.44;5058845;28;20051;-64
2024/03/22 08:01:04;;;;;;;0.50;0.50;;;;;;;11.20;38.37;97183.69;5061069;28;20588;-61
2024/03/22 08:03:30;;;;;;;0.50;0.50;;;;;;;11.59;38.31;97229.47;5040867;28;20053;-70
2024/03/22 08:05:56;;;;;;;0.52;0.52;;;;;;;10.70;38.72;97108.00;5057995;28;20059;-66
2024/03/22 08:08:22;;;;;;;0.50;0.50;;;;;;;11.07;38.07;97212.75;5058147;28;20056;-69
2024/03/22 08:10:48;;;;;;;0.50;0.50;;;;;;;10.65;37.95;97163.69;5042837;28;20102;-67
2024/03/22 08:13:14;;;;;;;0.60;0.60;;;;;;;10.40;38.02;97101.53;5058075;28;20164;-63
2024/03/22 08:15:40;;;;;;;0.50;0.50;;;;;;;10.53;37.21;97100.19;5059597;28;20055;-74
2024/03/22 08:18:06;;;;;;;0.50;0.50;;;;;;;10.60;37.82;97114.16;5060566;28;20114;-75
2024/03/22 08:20:34;;;;;;;0.50;0.50;;;;;;;11.21;36.83;97188.84;5040470;28;20135;-64
2024/03/22 08:23:00;;;;;;;0.60;0.60;;;;;;;11.37;37.07;97222.78;5059095;28;20052;-67
2024/03/22 08:25:25;;;;;;;0.50;0.50;;;;;;;10.58;38.50;97194.06;5059773;28;20064;-59
2024/03/22 08:27:55;;;;;;;0.50;0.50;;;;;;;11.10;37.82;97195.38;5058692;28;20044;-62
2024/03/22 08:30:21;;;;;;;0.50;0.50;;;;;;;10.61;38.63;97168.38;5059783;28;20549;-61
2024/03/22 08:32:47;;;;;;;0.50;0.50;;;;;;;11.12;38.20;97221.56;5041237;28;20117;-61
2024/03/22 08:35:13;;;;;;;0.50;0.50;;;;;;;11.13;36.89;97216.84;5060117;28;20083;-61
2024/03/22 08:37:39;;;;;;;0.50;0.50;;;;;;;11.29;36.27;97220.25;5059295;28;20084;-60
2024/03/22 08:40:05;;;;;;;0.60;0.60;;;;;;;11.06;36.96;97155.72;5059124;28;20055;-67
2024/03/22 08:42:32;;;;;;;0.50;0.50;;;;;;;11.48;37.04;97215.44;4983648;28;20126;-67
2024/03/22 08:44:57;;;;;;;0.50;0.50;;;;;;;11.43;36.43;97218.53;5059432;28;20052;-61
2024/03/22 08:47:23;;;;;;;0.50;0.50;;;;;;;11.56;36.01;97196.94;5058664;28;20056;-66
2024/03/22 08:49:49;;;;;;;0.55;0.55;;;;;;;11.37;36.74;97199.81;5059612;28;20055;-61
2024/03/22 08:52:15;;;;;;;0.50;0.50;;;;;;;11.09;36.51;97182.69;5060694;28;20173;-71
2024/03/22 08:54:41;;;;;;;0.50;0.50;;;;;;;11.62;35.44;97225.97;5061009;28;20554;-69
2024/03/22 08:57:06;;;;;;;0.50;0.50;;;;;;;11.37;35.55;97127.69;5060058;28;20064;-64
2024/03/22 08:59:32;;;;;;;0.60;0.60;;;;;;;11.96;35.98;97206.31;5060343;28;20671;-60
2024/03/22 09:01:59;;;;;;;0.60;0.60;;;;;;;11.86;36.15;97178.38;5041460;28;20061;-66
2024/03/22 09:04:25;;;;;;;0.50;0.50;;;;;;;12.12;35.17;97214.47;5060317;28;20059;-63
2024/03/22 09:06:51;;;;;;;0.60;0.60;;;;;;;12.42;36.56;97198.59;5041453;28;20549;-69
2024/03/22 09:09:17;;;;;;;0.60;0.60;;;;;;;12.12;35.57;97153.38;5058963;28;20060;-70
2024/03/22 09:11:43;;;;;;;0.60;0.60;;;;;;;11.91;36.21;97178.88;5059847;28;20048;-63
2024/03/22 09:14:09;;;;;;;0.60;0.60;;;;;;;11.87;34.84;97130.06;5059050;28;20456;-62
2024/03/22 09:16:35;;;;;;;0.60;0.60;;;;;;;12.32;35.52;97174.25;5059285;28;20137;-70
2024/03/22 09:19:01;;;;;;;0.55;0.55;;;;;;;12.24;35.84;97155.91;5060585;28;20135;-66
2024/03/22 09:21:26;;;;;;;0.50;0.50;;;;;;;11.96;36.44;97134.13;5058219;28;20074;-69
2024/03/22 09:23:52;;;;;;;0.60;0.60;;;;;;;12.42;34.84;97150.56;5063255;28;20055;-65
2024/03/22 09:26:18;;;;;;;0.60;0.60;;;;;;;12.44;34.77;97165.66;5063710;28;20442;-66
2024/03/22 09:28:47;;;;;;;0.60;0.60;;;;;;;12.22;34.21;97102.69;5063582;28;20126;-66
2024/03/22 09:31:13;;;;;;;0.60;0.60;;;;;;;11.76;34.69;97079.16;5063774;28;20052;-70
2024/03/22 09:33:38;;;;;;;0.50;0.50;;;;;;;11.96;33.87;97030.63;5064110;28;20052;-69
2024/03/22 09:36:04;;;;;;;0.50;0.50;;;;;;;13.23;33.13;97191.94;5064433;28;20072;-70
2024/03/22 09:38:30;;;;;;;0.50;0.50;;;;;;;12.59;33.39;97206.34;5064287;28;20063;-67
2024/03/22 09:40:56;;;;;;;0.50;0.50;;;;;;;12.84;33.12;97199.06;5054216;28;20084;-69
2024/03/22 09:43:23;;;;;;;0.60;0.60;;;;;;;13.15;33.17;97214.50;5043571;28;20656;-67
2024/03/22 09:45:52;;;;;;;0.57;0.57;;;;;;;13.04;32.38;97167.13;5051616;28;20049;-73
2024/03/22 09:48:19;;;;;;;0.60;0.60;;;;;;;13.25;32.33;97189.56;5054379;28;20060;-68
2024/03/22 09:50:48;;;;;;;0.60;0.60;;;;;;;12.61;32.98;97059.47;5063007;28;20056;-69
2024/03/22 09:53:22;;;;;;;0.60;0.60;;;;;;;13.52;32.76;97162.34;5063494;28;20615;-71
2024/03/22 09:55:49;;;;;;;0.60;0.60;;;;;;;13.37;33.28;97178.13;5062996;28;20056;-75
2024/03/22 09:58:18;;;;;;;0.60;0.60;;;;;;;12.12;32.76;97033.97;5063362;28;20407;-70
2024/03/22 10:00:44;;;;;;;0.60;0.60;;;;;;;12.65;33.43;97046.41;5063551;28;20064;-71
2024/03/22 10:03:10;;;;;;;0.60;0.60;;;;;;;13.64;34.12;97173.97;5062700;28;20094;-64
2024/03/22 10:05:37;;;;;;;0.60;0.60;;;;;;;13.36;34.68;97170.97;5058389;28;20077;-70
2024/03/22 10:08:05;;;;;;;0.60;0.60;;;;;;;13.48;32.87;97126.16;5046371;28;20060;-63
2024/03/22 10:10:32;;;;;;;0.60;0.60;;;;;;;13.61;33.45;97091.25;5063274;28;20052;-70
2024/03/22 10:13:00;;;;;;;0.60;0.60;;;;;;;13.97;34.21;97159.09;5062960;28;20114;-72
2024/03/22 10:15:27;;;;;;;0.60;0.60;;;;;;;12.87;35.62;97077.94;5062622;28;20909;-69
2024/03/22 10:17:56;;;;;;;0.60;0.60;;;;;;;13.66;35.30;97165.22;5062970;28;20849;-64
2024/03/22 10:20:21;;;;;;;0.50;0.50;;;;;;;13.21;35.79;97158.16;5046382;28;20052;-64
2024/03/22 10:22:57;;;;;;;0.55;0.55;;;;;;;13.09;35.32;97180.66;5063165;28;20055;-64
2024/03/22 10:25:23;;;;;;;0.60;0.60;;;;;;;13.50;35.90;97168.31;5063141;28;20056;-66
2024/03/22 10:27:49;;;;;;;0.60;0.60;;;;;;;13.17;34.76;97059.16;5062624;28;20057;-72
2024/03/22 10:30:17;;;;;;;0.50;0.50;;;;;;;14.11;35.01;97136.88;5062811;28;20062;-64
2024/03/22 10:32:44;;;;;;;0.60;0.60;;;;;;;14.57;34.42;97162.16;5062478;28;20044;-72
2024/03/22 10:35:14;;;;;;;0.60;0.60;;;;;;;13.90;35.29;97152.66;5053356;28;20052;-70
2024/03/22 10:37:40;;;;;;;0.60;0.60;;;;;;;13.73;36.57;97145.00;5062860;28;20585;-64
2024/03/22 10:40:09;;;;;;;0.60;0.60;;;;;;;13.35;36.38;97077.56;5041448;28;20052;-64
2024/03/22 10:42:36;;;;;;;0.60;0.60;;;;;;;13.86;36.11;97143.50;5045844;28;20056;-68
2024/03/22 10:45:07;;;;;;;0.60;0.60;;;;;;;13.83;36.43;97119.22;5062923;28;20060;-70
2024/03/22 10:47:34;;;;;;;0.60;0.60;;;;;;;14.40;35.76;97140.59;5062115;28;20068;-68
2024/03/22 10:50:08;;;;;;;0.60;0.60;;;;;;;14.84;34.77;97129.97;5063113;28;20067;-67
2024/03/22 10:52:39;;;;;;;0.60;0.60;;;;;;;13.08;36.08;97028.91;5062352;28;20518;-64
2024/03/22 10:55:11;;;;;;;0.60;0.60;;;;;;;13.60;38.18;97105.56;5062587;28;20056;-70
2024/03/22 10:57:38;;;;;;;0.60;0.60;;;;;;;13.56;35.86;97115.88;5062258;28;20068;-69
2024/03/22 11:00:15;;;;;;;0.60;0.60;;;;;;;13.31;36.51;97131.56;5062548;28;20052;-70
2024/03/22 11:02:43;;;;;;;0.60;0.60;;;;;;;13.82;37.26;97123.16;5063103;28;20054;-65
2024/03/22 11:05:18;;;;;;;0.60;0.60;;;;;;;13.27;37.96;97075.94;5046377;28;20052;-70
2024/03/22 11:07:44;;;;;;;0.57;0.57;;;;;;;13.87;36.57;97120.03;5062094;28;20069;-69
2024/03/22 11:10:14;;;;;;;0.70;0.70;;;;;;;13.61;36.77;97087.66;5045100;28;20055;-64
2024/03/22 11:12:41;;;;;;;0.50;0.50;;;;;;;13.16;37.26;97040.88;5062379;28;20786;-69
2024/03/22 11:15:12;;;;;;;0.60;0.60;;;;;;;14.11;36.50;97085.91;5062071;28;20458;-68
2024/03/22 11:17:37;;;;;;;0.60;0.60;;;;;;;14.29;36.91;97081.25;5061957;28;20053;-69
2024/03/22 11:20:05;;;;;;;0.60;0.60;;;;;;;15.01;36.28;97078.97;5061934;28;20054;-69
2024/03/22 11:22:31;;;;;;;0.60;0.60;;;;;;;13.96;34.58;96989.59;5061382;28;20057;-64
2024/03/22 11:24:58;;;;;;;0.60;0.60;;;;;;;14.40;35.64;97098.81;5036591;28;20045;-66
2024/03/22 11:27:23;;;;;;;0.60;0.60;;;;;;;14.28;34.25;96976.53;5041575;28;20108;-64
2024/03/22 11:29:51;;;;;;;0.60;0.60;;;;;;;14.26;34.80;97043.00;5041587;28;20092;-69
2024/03/22 11:32:17;;;;;;;0.68;0.68;;;;;;;13.97;35.43;96974.47;5024967;28;20511;-64
2024/03/22 11:34:44;;;;;;;0.60;0.60;;;;;;;14.31;34.62;96933.94;5041451;28;20057;-64